createdAt,value
2023-04-21T14:14:58.251Z,676.54
2023-04-21T14:15:58.285Z,676.53
2023-04-21T14:16:58.348Z,676.54
2023-04-21T14:19:07.606Z,676.55
2023-04-21T14:20:07.626Z,676.54
2023-04-21T14:21:07.581Z,676.53
2023-04-21T14:22:07.521Z,676.54
2023-04-21T14:23:07.492Z,676.50
2023-04-21T14:24:07.555Z,676.53
2023-04-21T14:25:07.549Z,676.53
2023-04-21T14:26:07.510Z,676.55
2023-04-21T14:27:07.482Z,676.53
2023-04-21T14:28:07.595Z,676.54
2023-04-21T14:29:07.492Z,676.53
2023-04-21T14:30:07.438Z,676.52
2023-04-21T14:31:07.449Z,676.53
2023-04-21T14:32:07.430Z,676.54
2023-04-21T14:33:07.527Z,676.54
2023-04-21T14:34:07.402Z,676.54
2023-04-21T14:35:07.416Z,676.53
2023-04-21T14:36:07.492Z,676.55
2023-04-21T14:37:07.415Z,676.54
2023-04-21T14:38:07.405Z,676.53
2023-04-21T14:39:07.534Z,676.54
2023-04-21T14:40:16.581Z,676.54
2023-04-21T14:41:07.372Z,676.53
2023-04-21T14:42:07.309Z,676.54
2023-04-21T14:43:07.322Z,676.54
2023-04-21T14:44:07.334Z,676.55
2023-04-21T14:45:07.412Z,676.55
2023-04-21T14:46:07.431Z,676.54
2023-04-21T14:47:10.483Z,676.54
2023-04-21T14:48:07.242Z,676.54
2023-04-21T14:49:07.281Z,676.53
2023-04-21T14:50:07.259Z,676.55
2023-04-21T14:51:07.232Z,676.54
2023-04-21T14:52:07.273Z,676.55
2023-04-21T14:53:07.177Z,676.52
2023-04-21T14:54:07.154Z,676.55
2023-04-21T14:55:07.152Z,676.54
2023-04-21T14:56:07.225Z,676.53
2023-04-21T14:57:19.597Z,676.54
2023-04-21T14:58:08.168Z,676.54
2023-04-21T14:59:07.129Z,676.55
2023-04-21T15:00:07.170Z,676.54
2023-04-21T15:01:07.193Z,676.54
2023-04-21T15:02:07.330Z,676.53
2023-04-21T15:03:07.265Z,676.54
2023-04-21T15:04:07.330Z,676.54
2023-04-21T15:05:07.134Z,676.54
2023-04-21T15:06:07.016Z,676.55
2023-04-21T15:07:07.064Z,676.55
2023-04-21T15:08:07.084Z,676.53
2023-04-21T15:09:06.995Z,676.56
2023-04-21T15:10:07.017Z,676.52
2023-04-21T15:11:06.979Z,676.55
2023-04-21T15:12:07.307Z,676.54
2023-04-21T15:13:07.057Z,676.56
2023-04-21T15:14:06.994Z,676.54
2023-04-21T15:15:06.983Z,676.54
2023-04-21T15:16:06.976Z,676.54
2023-04-21T15:17:07.093Z,676.54
2023-04-21T15:18:07.001Z,676.55
2023-04-21T15:19:06.899Z,676.56
2023-04-21T15:20:06.958Z,676.55
2023-04-21T15:21:06.874Z,676.55
2023-04-21T15:22:06.863Z,676.54
2023-04-21T15:23:06.853Z,676.54
2023-04-21T15:24:06.859Z,676.53
2023-04-21T15:25:06.950Z,676.53
2023-04-21T15:26:06.798Z,676.55
2023-04-21T15:27:06.799Z,676.56
2023-04-21T15:28:06.798Z,676.55
2023-04-21T15:29:06.810Z,676.55
2023-04-21T15:30:06.792Z,676.54
2023-04-21T15:31:09.310Z,676.55
2023-04-21T15:32:06.953Z,676.56
2023-04-21T15:33:06.789Z,676.54
2023-04-21T15:34:06.759Z,676.54
2023-04-21T15:35:06.709Z,676.54
2023-04-21T15:36:06.693Z,676.55
2023-04-21T15:37:06.684Z,676.55
2023-04-21T15:38:06.687Z,676.54
2023-04-21T15:39:06.695Z,676.54
2023-04-21T15:40:06.700Z,676.54
2023-04-21T15:41:06.696Z,676.55
2023-04-21T15:42:06.622Z,676.53
2023-04-21T15:43:06.667Z,676.54
2023-04-21T15:44:06.666Z,676.54
2023-04-21T15:45:06.659Z,676.54
2023-04-21T15:46:06.611Z,676.55
2023-04-21T15:47:06.696Z,676.54
2023-04-21T15:48:06.648Z,676.54
2023-04-21T15:49:06.556Z,676.54
2023-04-21T15:50:06.910Z,676.53
2023-04-21T15:51:06.579Z,676.54
2023-04-21T15:52:06.771Z,676.54
2023-04-21T15:53:06.850Z,676.54
2023-04-21T15:54:06.493Z,676.54
2023-04-21T15:55:06.668Z,676.55
2023-04-21T15:56:06.506Z,676.54
2023-04-21T15:57:06.490Z,676.55
2023-04-21T15:58:06.501Z,676.56
2023-04-21T15:59:06.672Z,676.54
2023-04-21T16:00:06.472Z,676.55
2023-04-21T16:01:06.512Z,676.54
2023-04-21T16:02:06.550Z,676.54
2023-04-21T16:03:06.638Z,676.56
2023-04-21T16:04:06.616Z,676.55
2023-04-21T16:05:06.521Z,676.55
2023-04-21T16:06:06.770Z,676.55
2023-04-21T16:07:06.485Z,676.52
2023-04-21T16:08:06.430Z,676.54
2023-04-21T16:09:06.375Z,676.54
2023-04-21T16:10:06.336Z,676.53
2023-04-21T16:11:06.320Z,676.54
2023-04-21T16:12:06.352Z,676.54
2023-04-21T16:13:06.408Z,676.55
2023-04-21T16:14:06.309Z,676.54
2023-04-21T16:15:20.212Z,676.54
2023-04-21T16:16:07.389Z,676.53
2023-04-21T16:17:06.437Z,676.54
2023-04-21T16:18:06.600Z,676.54
2023-04-21T16:19:06.397Z,676.55
2023-04-21T16:20:06.325Z,676.56
2023-04-21T16:21:06.423Z,676.54
2023-04-21T16:22:06.316Z,676.54
2023-04-21T16:23:06.338Z,676.54
2023-04-21T16:24:07.634Z,676.54
2023-04-21T16:25:06.275Z,676.54
2023-04-21T16:26:06.209Z,676.54
2023-04-21T16:27:06.169Z,676.54
2023-04-21T16:28:06.148Z,676.55
2023-04-21T16:29:06.236Z,676.54
2023-04-21T16:30:08.140Z,676.55
2023-04-21T16:31:06.169Z,676.55
2023-04-21T16:32:06.155Z,676.54
2023-04-21T16:33:06.077Z,676.55
2023-04-21T16:34:06.059Z,676.55
2023-04-21T16:35:06.094Z,676.54
2023-04-21T16:36:06.135Z,676.54
2023-04-21T16:37:06.054Z,676.55
2023-04-21T16:38:06.082Z,676.55
2023-04-21T16:39:06.080Z,676.55
2023-04-21T16:40:06.069Z,676.54
2023-04-21T16:41:06.128Z,676.56
2023-04-21T16:42:06.054Z,676.55
2023-04-21T16:43:06.009Z,676.55
2023-04-21T16:44:05.953Z,676.52
2023-04-21T16:45:06.033Z,676.55
2023-04-21T16:46:06.051Z,676.54
2023-04-21T16:47:06.095Z,676.56
2023-04-21T16:48:06.262Z,676.56
2023-04-21T16:49:06.047Z,676.54
2023-04-21T16:50:06.112Z,676.55
2023-04-21T16:51:06.074Z,676.54
2023-04-21T16:52:06.025Z,676.54
2023-04-21T16:53:06.033Z,676.54
2023-04-21T16:54:06.037Z,676.55
2023-04-21T16:55:06.061Z,676.55
2023-04-21T16:56:06.115Z,676.55
2023-04-21T16:57:06.059Z,676.54
2023-04-21T16:58:06.085Z,676.55
2023-04-21T16:59:06.165Z,676.54
2023-04-21T17:00:06.107Z,676.55
2023-04-21T17:01:06.252Z,676.56
2023-04-21T17:02:06.184Z,676.56
2023-04-21T17:03:06.175Z,676.54
2023-04-21T17:04:06.285Z,676.56
2023-04-21T17:05:05.702Z,676.54
2023-04-21T17:06:05.716Z,676.55
2023-04-21T17:07:05.715Z,676.55
2023-04-21T17:08:05.689Z,676.55
2023-04-21T17:09:05.668Z,676.55
2023-04-21T17:10:05.726Z,676.56
2023-04-21T17:12:04.993Z,676.56
2023-04-21T17:13:04.966Z,676.55
2023-04-21T17:14:04.926Z,676.55
2023-04-21T17:15:04.931Z,676.55
2023-04-21T17:16:04.943Z,676.55
2023-04-21T17:17:04.956Z,676.55
2023-04-21T17:18:04.960Z,676.54
2023-04-21T17:19:04.897Z,676.55
2023-04-21T17:20:04.885Z,676.55
2023-04-21T17:21:04.970Z,676.55
2023-04-21T17:22:04.845Z,676.54
2023-04-21T17:23:04.872Z,676.55
2023-04-21T17:24:04.825Z,676.55
2023-04-21T17:25:04.830Z,676.55
2023-04-21T17:26:04.789Z,676.54
2023-04-21T17:27:04.792Z,676.55
2023-04-21T17:28:04.790Z,676.55
2023-04-21T17:29:04.801Z,676.55
2023-04-21T17:30:04.752Z,676.54
2023-04-21T17:31:15.015Z,676.54
2023-04-21T17:32:05.798Z,676.55
2023-04-21T17:33:16.320Z,676.55
2023-04-21T17:34:05.706Z,676.55
2023-04-21T17:35:04.710Z,676.56
2023-04-21T17:36:04.724Z,676.55
2023-04-21T17:37:04.681Z,676.56
2023-04-21T17:38:04.680Z,676.54
2023-04-21T17:39:04.672Z,676.55
2023-04-21T17:40:04.803Z,676.55
2023-04-21T17:41:04.645Z,676.56
2023-04-21T17:42:04.615Z,676.55
2023-04-21T17:43:04.613Z,676.56
2023-04-21T17:44:04.594Z,676.54
2023-04-21T17:45:04.637Z,676.55
2023-04-21T17:46:04.670Z,676.56
2023-04-21T17:47:04.570Z,676.55
2023-04-21T17:48:04.583Z,676.55
2023-04-21T17:49:04.549Z,676.54
2023-04-21T17:50:04.538Z,676.55
2023-04-21T17:51:04.534Z,676.55
2023-04-21T17:52:04.508Z,676.57
2023-04-21T17:53:04.515Z,676.56
2023-04-21T17:54:04.487Z,676.56
2023-04-21T17:55:04.552Z,676.56
2023-04-21T17:56:04.515Z,676.55
2023-04-21T17:57:04.502Z,676.56
2023-04-21T17:58:04.465Z,676.57
2023-04-21T17:59:04.446Z,676.54
2023-04-21T18:00:04.445Z,676.56
2023-04-21T18:01:04.468Z,676.56
2023-04-21T18:02:04.548Z,676.55
2023-04-21T18:03:04.557Z,676.56
2023-04-21T18:04:04.571Z,676.56
2023-04-21T18:05:04.441Z,676.55
2023-04-21T18:06:04.354Z,676.56
2023-04-21T18:07:04.334Z,676.56
2023-04-21T18:08:04.362Z,676.56
2023-04-21T18:09:04.342Z,676.57
2023-04-21T18:10:04.296Z,676.56
2023-04-21T18:11:04.308Z,676.57
2023-04-21T18:12:04.287Z,676.55
2023-04-21T18:13:04.304Z,676.56
2023-04-21T18:14:04.264Z,676.55
2023-04-21T18:15:04.228Z,676.55
2023-04-21T18:16:04.404Z,676.57
2023-04-21T18:17:04.221Z,676.55
2023-04-21T18:18:04.307Z,676.56
2023-04-21T18:19:04.244Z,676.56
2023-04-21T18:20:04.188Z,676.56
2023-04-21T18:21:04.218Z,676.56
2023-04-21T18:22:04.157Z,676.57
2023-04-21T18:23:04.204Z,676.56
2023-04-21T18:24:04.168Z,676.57
2023-04-21T18:25:04.132Z,676.55
2023-04-21T18:26:04.112Z,676.56
2023-04-21T18:27:04.150Z,676.56
2023-04-21T18:28:04.120Z,676.55
2023-04-21T18:29:04.088Z,676.56
2023-04-21T18:30:04.115Z,676.56
2023-04-21T18:31:04.102Z,676.56
2023-04-21T18:32:04.097Z,676.55
2023-04-21T18:33:04.077Z,676.55
2023-04-21T18:34:04.017Z,676.56
2023-04-21T18:35:04.029Z,676.56
2023-04-21T18:36:04.021Z,676.55
2023-04-21T18:37:03.976Z,676.56
2023-04-21T18:38:03.982Z,676.56
2023-04-21T18:39:04.000Z,676.57
2023-04-21T18:40:03.971Z,676.57
2023-04-21T18:41:03.954Z,676.56
2023-04-21T18:42:03.935Z,676.56
2023-04-21T18:43:03.924Z,676.56
2023-04-21T18:44:03.935Z,676.56
2023-04-21T18:45:04.706Z,676.55
2023-04-21T18:46:03.947Z,676.56
2023-04-21T18:47:03.905Z,676.56
2023-04-21T18:48:03.889Z,676.56
2023-04-21T18:49:03.847Z,676.56
2023-04-21T18:50:03.871Z,676.56
2023-04-21T18:51:03.929Z,676.55
2023-04-21T18:52:03.863Z,676.55
2023-04-21T18:53:03.811Z,676.56
2023-04-21T18:54:03.806Z,676.56
2023-04-21T18:55:03.773Z,676.55
2023-04-21T18:56:03.837Z,676.55
2023-04-21T18:57:03.770Z,676.57
2023-04-21T18:58:03.785Z,676.55
2023-04-21T18:59:03.764Z,676.57
2023-04-21T19:00:03.748Z,676.57
2023-04-21T19:01:03.823Z,676.55
2023-04-21T19:02:04.050Z,676.56
2023-04-21T19:03:03.847Z,676.56
2023-04-21T19:04:04.001Z,676.57
2023-04-21T19:05:03.667Z,676.56
2023-04-21T19:06:03.999Z,676.57
2023-04-21T19:07:03.659Z,676.56
2023-04-21T19:08:03.642Z,676.56
2023-04-21T19:09:03.617Z,676.56
2023-04-21T19:10:03.806Z,676.57
2023-04-21T19:11:03.626Z,676.57
2023-04-21T19:12:03.630Z,676.57
2023-04-21T19:13:03.633Z,676.57
2023-04-21T19:14:03.595Z,676.57
2023-04-21T19:15:03.588Z,676.58
2023-04-21T19:16:03.587Z,676.57
2023-04-21T19:17:03.690Z,676.57
2023-04-21T19:18:03.635Z,676.58
2023-04-21T19:19:03.650Z,676.57
2023-04-21T19:20:03.582Z,676.58
2023-04-21T19:21:03.486Z,676.57
2023-04-21T19:22:03.486Z,676.56
2023-04-21T19:23:03.639Z,676.57
2023-04-21T19:24:03.484Z,676.58
2023-04-21T19:25:03.435Z,676.57
2023-04-21T19:26:03.443Z,676.58
2023-04-21T19:27:03.555Z,676.58
2023-04-21T19:28:03.480Z,676.57
2023-04-21T19:29:03.399Z,676.58
2023-04-21T19:30:04.100Z,676.59
2023-04-21T19:31:03.362Z,676.59
2023-04-21T19:32:03.418Z,676.59
2023-04-21T19:33:03.440Z,676.60
2023-04-21T19:34:03.351Z,676.61
2023-04-21T19:35:03.342Z,676.61
2023-04-21T19:36:03.337Z,676.61
2023-04-21T19:37:03.322Z,676.61
2023-04-21T19:38:03.326Z,676.61
2023-04-21T19:39:03.292Z,676.61
2023-04-21T19:40:03.308Z,676.60
2023-04-21T19:41:03.266Z,676.60
2023-04-21T19:42:03.266Z,676.63
2023-04-21T19:43:03.241Z,676.62
2023-04-21T19:44:03.245Z,676.62
2023-04-21T19:45:03.255Z,676.62
2023-04-21T19:46:03.284Z,676.61
2023-04-21T19:47:03.199Z,676.62
2023-04-21T19:48:03.231Z,676.61
2023-04-21T19:49:03.210Z,676.62
2023-04-21T19:50:03.211Z,676.60
2023-04-21T19:51:03.156Z,676.60
2023-04-21T19:52:03.132Z,676.61
2023-04-21T19:53:03.118Z,676.60
2023-04-21T19:54:10.783Z,676.60
2023-04-21T19:55:04.131Z,676.61
2023-04-21T19:56:03.130Z,676.61
2023-04-21T19:57:03.085Z,676.61
2023-04-21T19:58:03.077Z,676.61
2023-04-21T19:59:03.146Z,676.61
2023-04-21T20:00:03.308Z,676.61
2023-04-21T20:01:03.125Z,676.60
2023-04-21T20:02:03.268Z,676.61
2023-04-21T20:03:03.095Z,676.61
2023-04-21T20:04:03.294Z,676.59
2023-04-21T20:05:03.224Z,676.60
2023-04-21T20:06:03.028Z,676.59
2023-04-21T20:07:02.974Z,676.60
2023-04-21T20:08:02.967Z,676.61
2023-04-21T20:09:02.957Z,676.60
2023-04-21T20:10:02.973Z,676.60
2023-04-21T20:11:02.940Z,676.61
2023-04-21T20:12:02.922Z,676.60
2023-04-21T20:13:02.917Z,676.60
2023-04-21T20:14:02.916Z,676.60
2023-04-21T20:15:02.930Z,676.59
2023-04-21T20:16:02.972Z,676.59
2023-04-21T20:17:02.909Z,676.59
2023-04-21T20:18:02.928Z,676.59
2023-04-21T20:19:02.829Z,676.60
2023-04-21T20:20:02.884Z,676.60
2023-04-21T20:21:02.907Z,676.59
2023-04-21T20:22:02.841Z,676.60
2023-04-21T20:23:02.796Z,676.60
2023-04-21T20:24:02.776Z,676.59
2023-04-21T20:25:02.771Z,676.60
2023-04-21T20:26:02.760Z,676.61
2023-04-21T20:27:02.789Z,676.60
2023-04-21T20:28:02.761Z,676.61
2023-04-21T20:29:02.747Z,676.60
2023-04-21T20:30:02.724Z,676.62
2023-04-21T20:31:02.762Z,676.61
2023-04-21T20:32:02.810Z,676.61
2023-04-21T20:33:02.744Z,676.60
2023-04-21T20:34:02.680Z,676.59
2023-04-21T20:35:02.639Z,676.61
2023-04-21T20:36:02.660Z,676.60
2023-04-21T20:37:02.664Z,676.60
2023-04-21T20:38:02.648Z,676.60
2023-04-21T20:39:02.615Z,676.60
2023-04-21T20:40:02.623Z,676.60
2023-04-21T20:41:02.608Z,676.60
2023-04-21T20:42:12.525Z,676.61
2023-04-21T20:43:03.580Z,676.60
2023-04-21T20:44:02.555Z,676.60
2023-04-21T20:45:02.563Z,676.59
2023-04-21T20:46:02.545Z,676.60
2023-04-21T20:47:02.593Z,676.61
2023-04-21T20:48:02.507Z,676.60
2023-04-21T20:49:02.510Z,676.60
2023-04-21T20:50:02.703Z,676.60
2023-04-21T20:51:02.508Z,676.60
2023-04-21T20:52:02.496Z,676.60
2023-04-21T20:53:02.445Z,676.60
2023-04-21T20:54:02.460Z,676.62
2023-04-21T20:55:02.436Z,676.60
2023-04-21T20:56:02.465Z,676.60
2023-04-21T20:57:02.556Z,676.60
2023-04-21T20:58:02.412Z,676.60
2023-04-21T20:59:02.392Z,676.60
2023-04-21T21:00:02.415Z,676.59
2023-04-21T21:01:02.428Z,676.60
2023-04-21T21:02:02.478Z,676.59
2023-04-21T21:03:02.496Z,676.59
2023-04-21T21:04:02.477Z,676.60
2023-04-21T21:05:02.323Z,676.60
2023-04-21T21:06:02.316Z,676.59
2023-04-21T21:07:02.294Z,676.60
2023-04-21T21:08:02.351Z,676.59
2023-04-21T21:09:02.263Z,676.59
2023-04-21T21:10:02.469Z,676.59
2023-04-21T21:11:02.252Z,676.59
2023-04-21T21:12:02.281Z,676.59
2023-04-21T21:13:02.233Z,676.59
2023-04-21T21:14:02.226Z,676.59
2023-04-21T21:15:02.213Z,676.59
2023-04-21T21:16:02.274Z,676.59
2023-04-21T21:17:02.258Z,676.59
2023-04-21T21:18:02.218Z,676.60
2023-04-21T21:19:02.149Z,676.60
2023-04-21T21:20:02.149Z,676.60
2023-04-21T21:21:02.172Z,676.60
2023-04-21T21:22:02.125Z,676.59
2023-04-21T21:23:02.175Z,676.61
2023-04-21T21:24:02.108Z,676.60
2023-04-21T21:25:02.098Z,676.60
2023-04-21T21:26:02.091Z,676.59
2023-04-21T21:27:02.080Z,676.59
2023-04-21T21:28:02.068Z,676.60
2023-04-21T21:29:02.083Z,676.59
2023-04-21T21:30:02.077Z,676.60
2023-04-21T21:31:02.015Z,676.59
2023-04-21T21:32:02.120Z,676.59
2023-04-21T21:33:02.005Z,676.60
2023-04-21T21:34:01.983Z,676.60
2023-04-21T21:35:02.017Z,676.58
2023-04-21T21:36:01.998Z,676.60
2023-04-21T21:37:01.958Z,676.59
2023-04-21T21:38:01.957Z,676.59
2023-04-21T21:39:01.934Z,676.59
2023-04-21T21:40:01.953Z,676.60
2023-04-21T21:41:01.914Z,676.60
2023-04-21T21:42:01.903Z,676.60
2023-04-21T21:43:01.924Z,676.59
2023-04-21T21:44:01.894Z,676.60
2023-04-21T21:45:01.866Z,676.60
2023-04-21T21:46:02.189Z,676.60
2023-04-21T21:47:01.843Z,676.58
2023-04-21T21:48:01.837Z,676.59
2023-04-21T21:49:01.821Z,676.59
2023-04-21T21:50:01.852Z,676.58
2023-04-21T21:51:01.812Z,676.59
2023-04-21T21:52:01.835Z,676.60
2023-04-21T21:53:01.779Z,676.59
2023-04-21T21:54:01.769Z,676.59
2023-04-21T21:55:01.753Z,676.59
2023-04-21T21:56:01.730Z,676.59
2023-04-21T21:57:01.772Z,676.60
2023-04-21T21:58:01.747Z,676.60
2023-04-21T21:59:01.715Z,676.60
2023-04-21T22:00:01.752Z,676.57
2023-04-21T22:01:01.727Z,676.59
2023-04-21T22:02:01.843Z,676.60
2023-04-21T22:03:01.739Z,676.60
2023-04-21T22:04:01.828Z,676.59
2023-04-21T22:05:01.746Z,676.59
2023-04-21T22:06:01.644Z,676.60
2023-04-21T22:07:01.712Z,676.59
2023-04-21T22:08:01.620Z,676.60
2023-04-21T22:09:01.607Z,676.59
2023-04-21T22:10:01.591Z,676.60
2023-04-21T22:11:01.586Z,676.58
2023-04-21T22:12:01.585Z,676.60
2023-04-21T22:13:01.636Z,676.59
2023-04-21T22:14:11.234Z,676.60
2023-04-21T22:15:02.538Z,676.59
2023-04-21T22:16:01.587Z,676.59
2023-04-21T22:17:01.536Z,676.58
2023-04-21T22:18:01.546Z,676.58
2023-04-21T22:19:01.495Z,676.59
2023-04-21T22:20:01.532Z,676.59
2023-04-21T22:21:01.471Z,676.58
2023-04-21T22:22:01.490Z,676.58
2023-04-21T22:23:01.447Z,676.59
2023-04-21T22:24:01.434Z,676.58
2023-04-21T22:25:01.416Z,676.59
2023-04-21T22:26:01.397Z,676.59
2023-04-21T22:27:01.672Z,676.58
2023-04-21T22:28:01.394Z,676.59
2023-04-21T22:29:01.386Z,676.59
2023-04-21T22:30:01.383Z,676.59
2023-04-21T22:31:01.358Z,676.59
2023-04-21T22:32:01.349Z,676.59
2023-04-21T22:33:01.570Z,676.59
2023-04-21T22:34:01.355Z,676.58
2023-04-21T22:35:01.363Z,676.59
2023-04-21T22:36:01.298Z,676.58
2023-04-21T22:37:01.307Z,676.57
2023-04-21T22:38:01.285Z,676.58
2023-04-21T22:39:01.282Z,676.58
2023-04-21T22:40:01.244Z,676.58
2023-04-21T22:41:01.248Z,676.58
2023-04-21T22:42:01.572Z,676.58
2023-04-21T22:43:01.240Z,676.58
2023-04-21T22:44:01.473Z,676.59
2023-04-21T22:45:01.233Z,676.58
2023-04-21T22:46:01.168Z,676.58
2023-04-21T22:47:01.263Z,676.57
2023-04-21T22:48:01.238Z,676.58
2023-04-21T22:49:01.192Z,676.59
2023-04-21T22:50:01.183Z,676.58
2023-04-21T22:51:01.132Z,676.57
2023-04-21T22:52:01.138Z,676.58
2023-04-21T22:53:01.235Z,676.59
2023-04-21T22:54:01.070Z,676.58
2023-04-21T22:55:01.163Z,676.58
2023-04-21T22:56:01.109Z,676.59
2023-04-21T22:57:01.065Z,676.57
2023-04-21T22:58:01.033Z,676.58
2023-04-21T22:59:01.070Z,676.58
2023-04-21T23:00:01.047Z,676.58
2023-04-21T23:01:01.057Z,676.58
2023-04-21T23:02:01.018Z,676.58
2023-04-21T23:03:01.223Z,676.58
2023-04-21T23:04:01.139Z,676.57
2023-04-21T23:05:00.975Z,676.58
2023-04-21T23:06:00.965Z,676.58
2023-04-21T23:07:00.940Z,676.58
2023-04-21T23:08:00.927Z,676.58
2023-04-21T23:09:00.943Z,676.59
2023-04-21T23:10:00.894Z,676.58
2023-04-21T23:11:00.961Z,676.57
2023-04-21T23:12:00.926Z,676.58
2023-04-21T23:13:02.818Z,676.57
2023-04-21T23:14:00.872Z,676.57
2023-04-21T23:15:00.911Z,676.59
2023-04-21T23:16:00.867Z,676.57
2023-04-21T23:17:01.008Z,676.58
2023-04-21T23:18:00.851Z,676.57
2023-04-21T23:19:00.841Z,676.57
2023-04-21T23:20:00.805Z,676.58
2023-04-21T23:21:00.806Z,676.58
2023-04-21T23:22:00.759Z,676.58
2023-04-21T23:23:00.775Z,676.58
2023-04-21T23:24:00.748Z,676.57
2023-04-21T23:25:00.760Z,676.58
2023-04-21T23:26:00.747Z,676.58
2023-04-21T23:27:00.756Z,676.58
2023-04-21T23:28:00.706Z,676.57
2023-04-21T23:29:00.714Z,676.58
2023-04-21T23:30:00.696Z,676.58
2023-04-21T23:31:00.691Z,676.57
2023-04-21T23:32:00.709Z,676.58
2023-04-21T23:33:00.690Z,676.57
2023-04-21T23:34:00.666Z,676.58
2023-04-21T23:35:00.630Z,676.57
2023-04-21T23:36:00.609Z,676.57
2023-04-21T23:37:00.831Z,676.58
2023-04-21T23:38:00.617Z,676.57
2023-04-21T23:39:00.576Z,676.58
2023-04-21T23:40:00.586Z,676.57
2023-04-21T23:41:00.572Z,676.58
2023-04-21T23:42:00.570Z,676.58
2023-04-21T23:43:00.554Z,676.57
2023-04-21T23:44:00.584Z,676.58
2023-04-21T23:45:00.535Z,676.57
2023-04-21T23:46:00.563Z,676.58
2023-04-21T23:47:00.512Z,676.57
2023-04-21T23:48:00.598Z,676.57
2023-04-21T23:49:00.483Z,676.58
2023-04-21T23:50:00.452Z,676.58
2023-04-21T23:51:00.572Z,676.57
2023-04-21T23:52:00.461Z,676.58
2023-04-21T23:53:00.470Z,676.57
2023-04-21T23:54:00.397Z,676.58
2023-04-21T23:55:00.405Z,676.58
2023-04-21T23:56:00.422Z,676.57
2023-04-21T23:57:00.381Z,676.57
2023-04-21T23:58:00.445Z,676.57
2023-04-21T23:59:00.362Z,676.58
